createdAt,value
2023-04-10T00:00:02.287Z,43.36
2023-04-10T00:00:12.553Z,43.36
2023-04-10T00:00:22.823Z,43.46
2023-04-10T00:00:33.101Z,43.57
2023-04-10T00:00:43.367Z,43.48
2023-04-10T00:00:53.630Z,43.57
2023-04-10T00:01:03.913Z,43.57
2023-04-10T00:01:14.177Z,43.59
2023-04-10T00:01:24.440Z,43.59
2023-04-10T00:01:34.717Z,43.59
2023-04-10T00:01:45.113Z,43.69
2023-04-10T00:01:55.460Z,43.69
2023-04-10T00:02:05.802Z,43.79
2023-04-10T00:02:16.219Z,43.79
2023-04-10T00:02:26.647Z,43.90
2023-04-10T00:02:37.039Z,43.90
2023-04-10T00:02:47.438Z,43.90
2023-04-10T00:02:57.695Z,43.90
2023-04-10T00:03:07.965Z,43.90
2023-04-10T00:03:18.323Z,44.00
2023-04-10T00:03:28.350Z,44.00
2023-04-10T00:03:38.676Z,44.00
2023-04-10T00:03:49.049Z,43.90
2023-04-10T00:03:59.689Z,43.90
2023-04-10T00:04:09.692Z,43.90
2023-04-10T00:04:19.951Z,43.90
2023-04-10T00:04:30.205Z,43.90
2023-04-10T00:04:40.761Z,43.90
2023-04-10T00:04:51.100Z,43.90
2023-04-10T00:05:01.252Z,43.90
2023-04-10T00:05:11.688Z,43.90
2023-04-10T00:05:21.812Z,44.00
2023-04-10T00:05:32.088Z,44.00
2023-04-10T00:05:42.349Z,44.10
2023-04-10T00:05:52.622Z,44.10
2023-04-10T00:06:02.893Z,44.20
2023-04-10T00:06:13.171Z,44.20
2023-04-10T00:06:23.426Z,44.10
2023-04-10T00:06:33.693Z,44.10
2023-04-10T00:06:43.964Z,44.10
2023-04-10T00:06:54.236Z,44.10
2023-04-10T00:07:04.512Z,44.10
2023-04-10T00:07:14.894Z,44.10
2023-04-10T00:07:25.184Z,44.10
2023-04-10T00:07:35.503Z,44.20
2023-04-10T00:07:45.746Z,44.20
2023-04-10T00:07:56.024Z,44.20
2023-04-10T00:08:06.286Z,44.20
2023-04-10T00:08:16.558Z,44.20
2023-04-10T00:08:26.831Z,44.10
2023-04-10T00:08:37.096Z,44.00
2023-04-10T00:08:47.364Z,43.90
2023-04-10T00:08:57.633Z,44.00
2023-04-10T00:09:07.904Z,44.00
2023-04-10T00:09:18.173Z,44.00
2023-04-10T00:09:28.439Z,44.00
2023-04-10T00:09:38.708Z,44.10
2023-04-10T00:09:48.985Z,44.10
2023-04-10T00:09:59.246Z,44.20
2023-04-10T00:10:09.535Z,44.20
2023-04-10T00:10:19.894Z,44.20
2023-04-10T00:10:30.169Z,44.20
2023-04-10T00:10:40.398Z,44.20
2023-04-10T00:10:50.666Z,44.20
2023-04-10T00:11:00.940Z,44.20
2023-04-10T00:11:11.306Z,44.20
2023-04-10T00:11:21.552Z,44.20
2023-04-10T00:11:31.846Z,44.31
2023-04-10T00:11:42.094Z,44.31
2023-04-10T00:11:52.361Z,44.31
2023-04-10T00:12:02.653Z,44.31
2023-04-10T00:12:12.910Z,44.31
2023-04-10T00:12:23.187Z,44.31
2023-04-10T00:12:33.463Z,44.31
2023-04-10T00:12:43.726Z,44.31
2023-04-10T00:12:54.058Z,44.31
2023-04-10T00:13:04.442Z,44.31
2023-04-10T00:13:14.701Z,44.31
2023-04-10T00:13:24.957Z,44.31
2023-04-10T00:13:35.227Z,44.41
2023-04-10T00:13:45.532Z,44.41
2023-04-10T00:13:55.911Z,44.41
2023-04-10T00:14:06.199Z,44.41
2023-04-10T00:14:16.465Z,44.41
2023-04-10T00:14:26.785Z,44.31
2023-04-10T00:14:37.041Z,44.33
2023-04-10T00:14:47.316Z,44.33
2023-04-10T00:14:57.586Z,44.33
2023-04-10T00:15:07.859Z,44.31
2023-04-10T00:15:18.126Z,44.23
2023-04-10T00:15:28.389Z,44.23
2023-04-10T00:15:38.657Z,44.33
2023-04-10T00:15:48.929Z,44.33
2023-04-10T00:15:59.199Z,44.43
2023-04-10T00:16:09.548Z,44.53
2023-04-10T00:16:19.853Z,44.53
2023-04-10T00:16:30.151Z,44.53
2023-04-10T00:16:40.469Z,44.53
2023-04-10T00:16:50.788Z,44.43
2023-04-10T00:17:01.222Z,44.43
2023-04-10T00:17:11.310Z,44.43
2023-04-10T00:17:21.627Z,44.43
2023-04-10T00:17:31.917Z,44.43
2023-04-10T00:17:42.249Z,44.43
2023-04-10T00:17:52.548Z,44.43
2023-04-10T00:18:02.823Z,44.43
2023-04-10T00:18:13.122Z,44.43
2023-04-10T00:18:23.372Z,44.53
2023-04-10T00:18:33.647Z,44.64
2023-04-10T00:18:43.910Z,44.64
2023-04-10T00:18:54.182Z,44.64
2023-04-10T00:19:04.455Z,44.64
2023-04-10T00:19:14.745Z,44.53
2023-04-10T00:19:25.000Z,44.53
2023-04-10T00:19:35.309Z,44.43
2023-04-10T00:19:45.601Z,44.43
2023-04-10T00:19:55.844Z,44.53
2023-04-10T00:20:06.122Z,44.64
2023-04-10T00:20:16.406Z,44.64
2023-04-10T00:20:26.686Z,44.64
2023-04-10T00:20:36.933Z,44.64
2023-04-10T00:20:47.226Z,44.74
2023-04-10T00:20:57.490Z,44.74
2023-04-10T00:21:07.818Z,44.74
2023-04-10T00:21:18.082Z,44.74
2023-04-10T00:21:28.353Z,44.74
2023-04-10T00:21:38.626Z,44.74
2023-04-10T00:21:48.892Z,44.84
2023-04-10T00:21:59.194Z,44.84
2023-04-10T00:22:09.434Z,44.84
2023-04-10T00:22:19.717Z,44.95
2023-04-10T00:22:29.981Z,44.95
2023-04-10T00:22:40.250Z,44.95
2023-04-10T00:22:50.521Z,44.95
2023-04-10T00:23:00.790Z,44.84
2023-04-10T00:23:11.061Z,44.95
2023-04-10T00:23:21.331Z,44.95
2023-04-10T00:23:31.599Z,44.95
2023-04-10T00:23:41.864Z,44.95
2023-04-10T00:23:52.255Z,44.95
2023-04-10T00:24:02.388Z,44.95
2023-04-10T00:24:12.638Z,44.95
2023-04-10T00:24:22.901Z,44.95
2023-04-10T00:24:33.176Z,45.04
2023-04-10T00:24:43.441Z,45.04
2023-04-10T00:24:53.712Z,45.04
2023-04-10T00:25:03.977Z,44.95
2023-04-10T00:25:14.251Z,44.95
2023-04-10T00:25:24.516Z,44.95
2023-04-10T00:25:34.783Z,44.84
2023-04-10T00:25:45.056Z,44.84
2023-04-10T00:25:55.336Z,44.84
2023-04-10T00:26:05.591Z,44.84
2023-04-10T00:26:15.861Z,44.84
2023-04-10T00:26:26.236Z,44.95
2023-04-10T00:26:36.467Z,44.95
2023-04-10T00:26:46.739Z,44.96
2023-04-10T00:26:57.001Z,44.84
2023-04-10T00:27:07.278Z,44.84
2023-04-10T00:27:17.642Z,44.86
2023-04-10T00:27:27.893Z,44.84
2023-04-10T00:27:38.162Z,44.84
2023-04-10T00:27:48.444Z,44.86
2023-04-10T00:27:58.701Z,44.84
2023-04-10T00:28:08.980Z,44.86
2023-04-10T00:28:19.257Z,44.96
2023-04-10T00:28:29.549Z,44.86
2023-04-10T00:28:39.800Z,44.96
2023-04-10T00:28:50.068Z,44.96
2023-04-10T00:29:00.342Z,44.96
2023-04-10T00:29:10.619Z,44.96
2023-04-10T00:29:20.901Z,44.96
2023-04-10T00:29:31.167Z,44.96
2023-04-10T00:29:41.426Z,44.96
2023-04-10T00:29:51.770Z,45.07
2023-04-10T00:30:02.008Z,45.17
2023-04-10T00:30:12.300Z,45.17
2023-04-10T00:30:22.529Z,45.28
2023-04-10T00:30:32.798Z,45.28
2023-04-10T00:30:43.079Z,45.28
2023-04-10T00:30:53.358Z,45.28
2023-04-10T00:31:03.637Z,45.28
2023-04-10T00:31:13.898Z,45.28
2023-04-10T00:31:24.195Z,45.28
2023-04-10T00:31:34.456Z,45.28
2023-04-10T00:31:44.731Z,45.28
2023-04-10T00:31:55.145Z,45.28
2023-04-10T00:32:05.440Z,45.28
2023-04-10T00:32:15.856Z,45.17
2023-04-10T00:32:26.009Z,45.17
2023-04-10T00:32:36.333Z,45.17
2023-04-10T00:32:46.693Z,45.17
2023-04-10T00:32:57.071Z,45.17
2023-04-10T00:33:07.359Z,45.07
2023-04-10T00:33:17.622Z,45.17
2023-04-10T00:33:27.868Z,45.17
2023-04-10T00:33:38.133Z,45.17
2023-04-10T00:33:48.416Z,45.28
2023-04-10T00:33:58.690Z,45.28
2023-04-10T00:34:08.946Z,45.28
2023-04-10T00:34:19.240Z,45.28
2023-04-10T00:34:29.495Z,45.28
2023-04-10T00:34:39.767Z,45.28
2023-04-10T00:34:50.034Z,45.28
2023-04-10T00:35:00.331Z,45.28
2023-04-10T00:35:10.582Z,45.37
2023-04-10T00:35:20.857Z,45.37
2023-04-10T00:35:31.129Z,45.37
2023-04-10T00:35:41.429Z,45.37
2023-04-10T00:35:51.727Z,45.48
2023-04-10T00:36:02.003Z,45.48
2023-04-10T00:36:12.258Z,45.48
2023-04-10T00:36:22.568Z,45.58
2023-04-10T00:36:32.832Z,45.48
2023-04-10T00:36:43.097Z,45.48
2023-04-10T00:36:53.370Z,45.48
2023-04-10T00:37:03.649Z,45.48
2023-04-10T00:37:13.940Z,45.37
2023-04-10T00:37:24.212Z,45.37
2023-04-10T00:37:34.475Z,45.48
2023-04-10T00:37:44.745Z,45.48
2023-04-10T00:37:55.019Z,45.37
2023-04-10T00:38:05.284Z,45.37
2023-04-10T00:38:15.556Z,45.37
2023-04-10T00:38:25.863Z,45.37
2023-04-10T00:38:36.135Z,45.37
2023-04-10T00:38:46.405Z,45.48
2023-04-10T00:38:56.673Z,45.48
2023-04-10T00:39:06.937Z,45.48
2023-04-10T00:39:17.214Z,45.48
2023-04-10T00:39:27.486Z,45.48
2023-04-10T00:39:37.853Z,45.48
2023-04-10T00:39:48.130Z,45.58
2023-04-10T00:39:58.391Z,45.58
2023-04-10T00:40:08.668Z,45.58
2023-04-10T00:40:18.966Z,45.58
2023-04-10T00:40:29.250Z,45.58
2023-04-10T00:40:39.496Z,45.58
2023-04-10T00:40:49.767Z,45.58
2023-04-10T00:41:00.036Z,45.68
2023-04-10T00:41:10.304Z,45.79
2023-04-10T00:41:20.572Z,45.79
2023-04-10T00:41:30.837Z,45.79
2023-04-10T00:41:41.111Z,45.79
2023-04-10T00:41:51.379Z,45.68
2023-04-10T00:42:01.685Z,45.58
2023-04-10T00:42:11.925Z,45.68
2023-04-10T00:42:22.204Z,45.68
2023-04-10T00:42:32.475Z,45.71
2023-04-10T00:42:42.747Z,45.79
2023-04-10T00:42:53.114Z,45.81
2023-04-10T00:43:03.447Z,45.81
2023-04-10T00:43:13.689Z,45.71
2023-04-10T00:43:23.982Z,45.71
2023-04-10T00:43:34.233Z,45.81
2023-04-10T00:43:44.499Z,45.81
2023-04-10T00:43:55.025Z,45.81
2023-04-10T00:44:05.149Z,45.81
2023-04-10T00:44:15.429Z,45.81
2023-04-10T00:44:25.691Z,45.81
2023-04-10T00:44:35.979Z,45.81
2023-04-10T00:44:46.243Z,45.81
2023-04-10T00:44:56.520Z,45.81
2023-04-10T00:45:06.824Z,45.81
2023-04-10T00:45:17.068Z,45.91
2023-04-10T00:45:27.344Z,45.81
2023-04-10T00:45:37.638Z,45.81
2023-04-10T00:45:49.962Z,45.81
2023-04-10T00:45:58.296Z,45.91
2023-04-10T00:46:08.631Z,45.91
2023-04-10T00:46:18.925Z,45.91
2023-04-10T00:46:29.304Z,45.91
2023-04-10T00:46:39.433Z,45.91
2023-04-10T00:46:49.695Z,45.91
2023-04-10T00:46:59.980Z,45.91
2023-04-10T00:47:10.235Z,45.91
2023-04-10T00:47:20.545Z,45.91
2023-04-10T00:47:30.817Z,45.91
2023-04-10T00:47:41.140Z,46.12
2023-04-10T00:47:51.451Z,46.12
2023-04-10T00:48:01.796Z,46.12
2023-04-10T00:48:12.045Z,46.12
2023-04-10T00:48:22.326Z,46.12
2023-04-10T00:48:32.601Z,46.12
2023-04-10T00:48:42.869Z,46.12
2023-04-10T00:48:53.148Z,46.22
2023-04-10T00:49:03.416Z,46.22
2023-04-10T00:49:13.693Z,46.22
2023-04-10T00:49:23.975Z,46.22
2023-04-10T00:49:34.232Z,46.22
2023-04-10T00:49:44.495Z,46.22
2023-04-10T00:49:54.765Z,46.22
2023-04-10T00:50:05.033Z,46.22
2023-04-10T00:50:15.295Z,46.12
2023-04-10T00:50:25.572Z,46.12
2023-04-10T00:50:35.832Z,46.22
2023-04-10T00:50:46.207Z,46.33
2023-04-10T00:50:56.496Z,46.33
2023-04-10T00:51:06.748Z,46.33
2023-04-10T00:51:17.019Z,46.33
2023-04-10T00:51:27.325Z,46.33
2023-04-10T00:51:37.581Z,46.33
2023-04-10T00:51:47.865Z,46.33
2023-04-10T00:51:58.703Z,46.33
2023-04-10T00:52:08.338Z,46.33
2023-04-10T00:52:18.630Z,46.33
2023-04-10T00:52:28.901Z,46.33
2023-04-10T00:52:39.176Z,46.33
2023-04-10T00:52:49.448Z,46.33
2023-04-10T00:52:59.711Z,46.33
2023-04-10T00:53:09.985Z,46.33
2023-04-10T00:53:20.262Z,46.33
2023-04-10T00:53:30.517Z,46.33
2023-04-10T00:53:40.790Z,46.33
2023-04-10T00:53:51.267Z,46.33
2023-04-10T00:54:01.453Z,46.33
2023-04-10T00:54:11.720Z,46.43
2023-04-10T00:54:21.986Z,46.43
2023-04-10T00:54:32.252Z,46.33
2023-04-10T00:54:42.520Z,46.33
2023-04-10T00:54:52.789Z,46.33
2023-04-10T00:55:03.060Z,46.33
2023-04-10T00:55:13.324Z,46.22
2023-04-10T00:55:23.603Z,46.33
2023-04-10T00:55:33.868Z,46.33
2023-04-10T00:55:44.130Z,46.33
2023-04-10T00:55:54.396Z,46.43
2023-04-10T00:56:04.696Z,46.43
2023-04-10T00:56:14.938Z,46.43
2023-04-10T00:56:25.203Z,46.43
2023-04-10T00:56:35.475Z,46.43
2023-04-10T00:56:45.740Z,46.55
2023-04-10T00:56:56.008Z,46.53
2023-04-10T00:57:06.286Z,46.53
2023-04-10T00:57:16.549Z,46.53
2023-04-10T00:57:26.830Z,46.53
2023-04-10T00:57:37.099Z,46.43
2023-04-10T00:57:47.366Z,46.53
2023-04-10T00:57:57.645Z,46.55
2023-04-10T00:58:07.910Z,46.53
2023-04-10T00:58:18.175Z,46.66
2023-04-10T00:58:28.441Z,46.66
2023-04-10T00:58:38.720Z,46.66
2023-04-10T00:58:49.014Z,46.66
2023-04-10T00:58:59.260Z,46.66
2023-04-10T00:59:09.517Z,46.66
2023-04-10T00:59:19.785Z,46.66
2023-04-10T00:59:30.052Z,46.66
2023-04-10T00:59:40.333Z,46.66
2023-04-10T00:59:50.592Z,46.76
2023-04-10T01:00:00.866Z,46.76
2023-04-10T01:00:11.128Z,46.86
2023-04-10T01:00:21.407Z,46.86
2023-04-10T01:00:31.667Z,46.86
2023-04-10T01:00:41.942Z,46.97
2023-04-10T01:00:52.235Z,46.97
2023-04-10T01:01:02.500Z,46.97
2023-04-10T01:01:12.794Z,46.97
2023-04-10T01:01:23.068Z,46.97
2023-04-10T01:01:33.530Z,46.97
2023-04-10T01:01:43.770Z,46.97
2023-04-10T01:01:54.179Z,46.97
2023-04-10T01:02:04.532Z,47.06
2023-04-10T01:02:14.774Z,47.06
2023-04-10T01:02:25.212Z,47.17
2023-04-10T01:02:35.501Z,47.06
2023-04-10T01:02:45.813Z,47.06
2023-04-10T01:02:56.183Z,47.06
2023-04-10T01:03:06.419Z,47.06
2023-04-10T01:03:16.705Z,47.06
2023-04-10T01:03:26.914Z,47.06
2023-04-10T01:03:37.163Z,47.06
2023-04-10T01:03:47.441Z,46.97
2023-04-10T01:03:58.212Z,46.97
2023-04-10T01:04:08.309Z,46.97
2023-04-10T01:04:18.541Z,46.97
2023-04-10T01:04:28.913Z,46.97
2023-04-10T01:04:39.098Z,46.97
2023-04-10T01:04:49.434Z,47.06
2023-04-10T01:04:59.696Z,47.06
2023-04-10T01:05:09.968Z,47.06
2023-04-10T01:05:20.234Z,47.06
2023-04-10T01:05:30.507Z,47.06
2023-04-10T01:05:40.781Z,47.06
2023-04-10T01:05:51.040Z,47.06
2023-04-10T01:06:01.308Z,47.17
2023-04-10T01:06:11.575Z,47.17
2023-04-10T01:06:21.851Z,47.17
2023-04-10T01:06:32.121Z,47.17
2023-04-10T01:06:42.413Z,47.17
2023-04-10T01:06:52.689Z,47.17
2023-04-10T01:07:02.957Z,47.17
2023-04-10T01:07:13.230Z,47.17
2023-04-10T01:07:23.494Z,47.17
2023-04-10T01:07:33.781Z,47.06
2023-04-10T01:07:44.057Z,47.06
2023-04-10T01:07:54.322Z,47.06
2023-04-10T01:08:04.603Z,47.06
2023-04-10T01:08:14.867Z,47.06
2023-04-10T01:08:25.123Z,47.06
2023-04-10T01:08:35.409Z,46.97
2023-04-10T01:08:45.661Z,46.97
2023-04-10T01:08:55.932Z,46.97
2023-04-10T01:09:06.197Z,46.97
2023-04-10T01:09:16.472Z,47.06
2023-04-10T01:09:26.742Z,47.06
2023-04-10T01:09:37.022Z,47.06
2023-04-10T01:09:47.354Z,47.06
2023-04-10T01:09:57.627Z,47.17
2023-04-10T01:10:07.912Z,47.17
2023-04-10T01:10:18.174Z,47.17
2023-04-10T01:10:28.468Z,47.17
2023-04-10T01:10:38.722Z,47.17
2023-04-10T01:10:48.990Z,47.17
2023-04-10T01:10:59.263Z,47.17
2023-04-10T01:11:09.528Z,47.17
2023-04-10T01:11:19.800Z,47.17
2023-04-10T01:11:30.073Z,47.17
2023-04-10T01:11:40.362Z,47.17
2023-04-10T01:11:50.630Z,47.27
2023-04-10T01:12:00.908Z,47.27
2023-04-10T01:12:11.190Z,47.27
2023-04-10T01:12:21.462Z,47.27
2023-04-10T01:12:31.733Z,47.27
2023-04-10T01:12:42.002Z,47.27
2023-04-10T01:12:52.282Z,47.27
2023-04-10T01:13:02.549Z,47.27
2023-04-10T01:13:12.832Z,47.27
2023-04-10T01:13:23.197Z,47.27
2023-04-10T01:13:33.543Z,47.27
2023-04-10T01:13:43.808Z,47.17
2023-04-10T01:13:54.174Z,47.17
2023-04-10T01:14:04.504Z,47.17
2023-04-10T01:14:14.767Z,47.17
2023-04-10T01:14:25.013Z,47.17
2023-04-10T01:14:35.291Z,47.27
2023-04-10T01:14:45.549Z,47.17
2023-04-10T01:14:55.848Z,47.17
2023-04-10T01:15:06.112Z,47.17
2023-04-10T01:15:16.372Z,47.17
2023-04-10T01:15:26.642Z,47.17
2023-04-10T01:15:36.908Z,47.19
2023-04-10T01:15:47.177Z,47.06
2023-04-10T01:15:57.492Z,47.06
2023-04-10T01:16:07.723Z,47.17
2023-04-10T01:16:18.000Z,47.17
2023-04-10T01:16:28.264Z,47.17
2023-04-10T01:16:38.565Z,47.06
2023-04-10T01:16:48.869Z,47.17
2023-04-10T01:16:59.143Z,47.17
2023-04-10T01:17:09.464Z,47.17
2023-04-10T01:17:19.797Z,47.19
2023-04-10T01:17:30.079Z,47.06
2023-04-10T01:17:40.337Z,47.06
2023-04-10T01:17:50.652Z,47.09
2023-04-10T01:18:00.953Z,46.97
2023-04-10T01:18:11.224Z,46.97
2023-04-10T01:18:21.493Z,46.98
2023-04-10T01:18:31.783Z,46.97
2023-04-10T01:18:42.064Z,46.98
2023-04-10T01:18:52.302Z,46.98
2023-04-10T01:19:02.578Z,46.98
2023-04-10T01:19:12.841Z,46.97
2023-04-10T01:19:23.114Z,46.98
2023-04-10T01:19:33.401Z,47.09
2023-04-10T01:19:43.653Z,47.09
2023-04-10T01:19:53.918Z,47.09
2023-04-10T01:20:04.181Z,47.09
2023-04-10T01:20:14.456Z,47.09
2023-04-10T01:20:24.730Z,47.09
2023-04-10T01:20:34.993Z,47.19
2023-04-10T01:20:45.254Z,47.19
2023-04-10T01:20:55.538Z,47.30
2023-04-10T01:21:05.817Z,47.30
2023-04-10T01:21:16.073Z,47.30
2023-04-10T01:21:26.332Z,47.30
2023-04-10T01:21:36.645Z,47.30
2023-04-10T01:21:46.881Z,47.40
2023-04-10T01:21:57.167Z,47.30
2023-04-10T01:22:07.441Z,47.30
2023-04-10T01:22:17.722Z,47.40
2023-04-10T01:22:27.982Z,47.40
2023-04-10T01:22:38.256Z,47.40
2023-04-10T01:22:48.532Z,47.40
2023-04-10T01:22:58.809Z,47.30
2023-04-10T01:23:09.072Z,47.30
2023-04-10T01:23:19.341Z,47.30
2023-04-10T01:23:29.609Z,47.30
2023-04-10T01:23:39.883Z,47.30
2023-04-10T01:23:50.147Z,47.30
2023-04-10T01:24:00.460Z,47.40
2023-04-10T01:24:10.738Z,47.40
2023-04-10T01:24:20.991Z,47.40
2023-04-10T01:24:31.255Z,47.40
2023-04-10T01:24:41.556Z,47.30
2023-04-10T01:24:51.804Z,47.30
2023-04-10T01:25:02.070Z,47.30
2023-04-10T01:25:12.367Z,47.30
2023-04-10T01:25:22.645Z,47.40
2023-04-10T01:25:32.902Z,47.50
2023-04-10T01:25:43.169Z,47.50
2023-04-10T01:25:53.434Z,47.50
2023-04-10T01:26:03.714Z,47.50
2023-04-10T01:26:13.993Z,47.50
2023-04-10T01:26:24.239Z,47.50
2023-04-10T01:26:34.507Z,47.50
2023-04-10T01:26:44.842Z,47.40
2023-04-10T01:26:55.091Z,47.40
2023-04-10T01:27:05.363Z,47.40
2023-04-10T01:27:15.623Z,47.40
2023-04-10T01:27:25.893Z,47.50
2023-04-10T01:27:36.161Z,47.60
2023-04-10T01:27:46.431Z,47.60
2023-04-10T01:27:56.698Z,47.60
2023-04-10T01:28:06.985Z,47.50
2023-04-10T01:28:17.248Z,47.40
2023-04-10T01:28:27.529Z,47.40
2023-04-10T01:28:37.789Z,47.30
2023-04-10T01:28:48.070Z,47.30
2023-04-10T01:28:58.342Z,47.30
2023-04-10T01:29:08.616Z,47.40
2023-04-10T01:29:18.873Z,47.40
2023-04-10T01:29:29.170Z,47.50
2023-04-10T01:29:39.454Z,47.50
2023-04-10T01:29:49.714Z,47.50
2023-04-10T01:30:00.003Z,47.50
2023-04-10T01:30:10.272Z,47.50
2023-04-10T01:30:20.521Z,47.50
2023-04-10T01:30:30.842Z,47.50
2023-04-10T01:30:41.172Z,47.50
2023-04-10T01:30:51.505Z,47.50
2023-04-10T01:31:01.799Z,47.50
2023-04-10T01:31:12.093Z,47.60
2023-04-10T01:31:22.499Z,47.60
2023-04-10T01:31:32.600Z,47.60
2023-04-10T01:31:42.889Z,47.60
2023-04-10T01:31:53.160Z,47.60
2023-04-10T01:32:03.441Z,47.60
2023-04-10T01:32:13.722Z,47.71
2023-04-10T01:32:24.032Z,47.71
2023-04-10T01:32:34.405Z,47.71
2023-04-10T01:32:44.717Z,47.81
2023-04-10T01:32:54.983Z,47.81
2023-04-10T01:33:05.272Z,47.71
2023-04-10T01:33:15.549Z,47.71
2023-04-10T01:33:25.825Z,47.71
2023-04-10T01:33:36.116Z,47.81
2023-04-10T01:33:46.378Z,47.81
2023-04-10T01:33:56.913Z,47.71
2023-04-10T01:34:06.949Z,47.60
2023-04-10T01:34:17.297Z,47.50
2023-04-10T01:34:27.595Z,47.50
2023-04-10T01:34:37.915Z,47.40
2023-04-10T01:34:48.160Z,47.40
2023-04-10T01:34:58.440Z,47.50
2023-04-10T01:35:08.699Z,47.50
2023-04-10T01:35:18.988Z,47.40
2023-04-10T01:35:29.290Z,47.40
2023-04-10T01:35:39.576Z,47.30
2023-04-10T01:35:49.840Z,47.30
2023-04-10T01:36:00.189Z,47.19
2023-04-10T01:36:10.489Z,47.19
2023-04-10T01:36:20.768Z,47.19
2023-04-10T01:36:31.032Z,47.09
2023-04-10T01:36:41.298Z,47.11
2023-04-10T01:36:51.574Z,47.09
2023-04-10T01:37:01.868Z,46.98
2023-04-10T01:37:12.152Z,46.98
2023-04-10T01:37:22.422Z,47.09
2023-04-10T01:37:32.682Z,47.09
2023-04-10T01:37:42.956Z,47.09
2023-04-10T01:37:53.245Z,47.09
2023-04-10T01:38:03.534Z,47.21
2023-04-10T01:38:13.787Z,47.21
2023-04-10T01:38:24.099Z,47.09
2023-04-10T01:38:34.341Z,47.11
2023-04-10T01:38:44.613Z,47.11
2023-04-10T01:38:54.884Z,47.11
2023-04-10T01:39:05.133Z,47.11
2023-04-10T01:39:15.402Z,47.09
2023-04-10T01:39:25.684Z,47.09
2023-04-10T01:39:35.941Z,47.09
2023-04-10T01:39:46.212Z,47.21
2023-04-10T01:39:56.483Z,47.11
2023-04-10T01:40:06.769Z,47.11
2023-04-10T01:40:17.029Z,47.21
2023-04-10T01:40:27.291Z,47.21
2023-04-10T01:40:37.557Z,47.21
2023-04-10T01:40:47.834Z,47.31
2023-04-10T01:40:58.104Z,47.31
2023-04-10T01:41:08.385Z,47.31
2023-04-10T01:41:18.636Z,47.31
2023-04-10T01:41:28.906Z,47.42
2023-04-10T01:41:39.174Z,47.42
2023-04-10T01:41:49.454Z,47.42
2023-04-10T01:41:59.789Z,47.52
2023-04-10T01:42:10.049Z,47.52
2023-04-10T01:42:20.301Z,47.42
2023-04-10T01:42:30.575Z,47.31
2023-04-10T01:42:42.329Z,47.31
2023-04-10T01:42:51.106Z,47.31
2023-04-10T01:43:01.383Z,47.31
2023-04-10T01:43:11.655Z,47.21
2023-04-10T01:43:21.929Z,47.11
2023-04-10T01:43:32.208Z,47.11
2023-04-10T01:43:42.474Z,47.21
2023-04-10T01:43:52.894Z,47.31
2023-04-10T01:44:03.032Z,47.31
2023-04-10T01:44:13.296Z,47.31
2023-04-10T01:44:23.565Z,47.31
2023-04-10T01:44:33.863Z,47.21
2023-04-10T01:44:44.106Z,47.11
2023-04-10T01:44:54.373Z,47.01
2023-04-10T01:45:04.659Z,47.01
2023-04-10T01:45:14.921Z,47.01
2023-04-10T01:45:25.189Z,47.01
2023-04-10T01:45:35.462Z,47.01
2023-04-10T01:45:45.745Z,47.11
2023-04-10T01:45:56.039Z,47.11
2023-04-10T01:46:06.382Z,47.21
2023-04-10T01:46:16.651Z,47.21
2023-04-10T01:46:26.960Z,47.21
2023-04-10T01:46:37.239Z,47.21
2023-04-10T01:46:47.623Z,47.21
2023-04-10T01:46:57.732Z,47.21
2023-04-10T01:47:08.012Z,47.21
2023-04-10T01:47:18.273Z,47.21
2023-04-10T01:47:28.577Z,47.31
2023-04-10T01:47:38.882Z,47.31
2023-04-10T01:47:49.173Z,47.31
2023-04-10T01:47:59.423Z,47.31
2023-04-10T01:48:09.677Z,47.31
2023-04-10T01:48:19.956Z,47.42
2023-04-10T01:48:30.216Z,47.42
2023-04-10T01:48:40.480Z,47.52
2023-04-10T01:48:50.757Z,47.52
2023-04-10T01:49:01.017Z,47.52
2023-04-10T01:49:11.291Z,47.63
2023-04-10T01:49:21.557Z,47.63
2023-04-10T01:49:31.865Z,47.73
2023-04-10T01:49:42.129Z,47.73
2023-04-10T01:49:52.380Z,47.73
2023-04-10T01:50:02.642Z,47.83
2023-04-10T01:50:12.972Z,47.73
2023-04-10T01:50:23.214Z,47.73
2023-04-10T01:50:33.480Z,47.63
2023-04-10T01:50:43.776Z,47.52
2023-04-10T01:50:54.041Z,47.52
2023-04-10T01:51:04.317Z,47.52
2023-04-10T01:51:14.591Z,47.52
2023-04-10T01:51:24.858Z,47.52
2023-04-10T01:55:45.984Z,47.52
2023-04-10T01:55:54.719Z,47.42
2023-04-10T01:56:04.965Z,47.31
2023-04-10T01:56:15.206Z,47.31
2023-04-10T01:56:25.459Z,47.31
2023-04-10T01:56:35.703Z,47.31
2023-04-10T01:56:56.338Z,47.21
2023-04-10T01:57:06.585Z,47.11
2023-04-10T01:57:16.824Z,47.01
2023-04-10T01:57:27.071Z,47.01
2023-04-10T01:57:37.318Z,46.91
2023-04-10T01:57:47.554Z,46.91
2023-04-10T01:57:57.820Z,47.01
2023-04-10T01:58:08.064Z,47.11
2023-04-10T01:58:18.308Z,47.11
2023-04-10T01:58:28.554Z,47.01
2023-04-10T01:58:38.806Z,46.91
2023-04-10T01:58:49.092Z,46.91
2023-04-10T01:58:59.417Z,47.01
2023-04-10T01:59:09.660Z,47.01
2023-04-10T01:59:19.908Z,47.01
2023-04-10T01:59:30.155Z,47.01
2023-04-10T01:59:40.386Z,46.92
2023-04-10T01:59:50.627Z,46.92
2023-04-10T02:00:01.031Z,46.82
2023-04-10T02:00:11.416Z,46.80
2023-04-10T02:00:21.804Z,46.92
2023-04-10T02:00:32.165Z,46.92
2023-04-10T02:00:42.514Z,46.92
2023-04-10T02:00:52.922Z,47.03
2023-04-10T02:01:03.272Z,47.13
2023-04-10T02:01:22.426Z,47.13
2023-04-10T02:01:29.657Z,46.92
2023-04-10T02:01:35.181Z,46.92
2023-04-10T02:01:44.549Z,46.82
2023-04-10T02:01:54.752Z,46.82
2023-04-10T02:02:04.884Z,46.82
2023-04-10T02:02:15.263Z,46.82
2023-04-10T02:02:25.681Z,46.92
2023-04-10T02:02:35.890Z,46.92
2023-04-10T02:02:46.326Z,46.92
2023-04-10T02:02:56.593Z,46.82
2023-04-10T02:03:06.936Z,46.82
2023-04-10T02:03:17.142Z,46.72
2023-04-10T02:03:27.397Z,46.72
2023-04-10T02:03:37.657Z,46.72
2023-04-10T02:03:48.001Z,46.72
2023-04-10T02:03:58.276Z,46.72
2023-04-10T02:04:08.539Z,46.62
2023-04-10T02:04:19.024Z,46.62
2023-04-10T02:04:29.296Z,46.62
2023-04-10T02:04:39.733Z,46.62
2023-04-10T02:04:49.886Z,46.72
2023-04-10T02:05:00.221Z,46.82
2023-04-10T02:05:10.535Z,46.82
2023-04-10T02:05:20.779Z,46.82
2023-04-10T02:05:31.024Z,46.72
2023-04-10T02:05:41.274Z,46.72
2023-04-10T02:05:51.511Z,46.72
2023-04-10T02:06:01.821Z,46.72
2023-04-10T02:06:12.078Z,46.72
2023-04-10T02:06:22.304Z,46.72
2023-04-10T02:06:32.547Z,46.72
2023-04-10T02:06:42.791Z,46.72
2023-04-10T02:06:53.078Z,46.72
2023-04-10T02:07:03.339Z,46.72
2023-04-10T02:07:13.587Z,46.72
2023-04-10T02:07:23.821Z,46.82
2023-04-10T02:07:34.065Z,46.82
2023-04-10T02:07:44.310Z,46.92
2023-04-10T02:07:54.577Z,46.82
2023-04-10T02:08:04.949Z,46.82
2023-04-10T02:08:15.236Z,46.82
2023-04-10T02:08:25.473Z,46.72
2023-04-10T02:08:35.714Z,46.72
2023-04-10T02:08:45.984Z,46.62
2023-04-10T02:08:56.217Z,46.62
2023-04-10T02:09:06.456Z,46.62
2023-04-10T02:09:16.728Z,46.62
2023-04-10T02:09:26.970Z,46.62
2023-04-10T02:09:37.213Z,46.62
2023-04-10T02:09:47.457Z,46.51
2023-04-10T02:09:57.714Z,46.51
2023-04-10T02:10:07.955Z,46.51
2023-04-10T02:10:18.194Z,46.51
2023-04-10T02:10:28.442Z,46.51
2023-04-10T02:10:38.681Z,46.51
2023-04-10T02:10:48.924Z,46.62
2023-04-10T02:10:59.167Z,46.62
2023-04-10T02:11:09.411Z,46.51
2023-04-10T02:11:19.657Z,46.51
2023-04-10T02:11:29.902Z,46.41
2023-04-10T02:11:40.144Z,46.41
2023-04-10T02:11:50.388Z,46.51
2023-04-10T02:12:00.636Z,46.51
2023-04-10T02:12:10.886Z,46.51
2023-04-10T02:12:21.128Z,46.41
2023-04-10T02:12:31.392Z,46.41
2023-04-10T02:12:41.653Z,46.41
2023-04-10T02:12:51.864Z,46.51
2023-04-10T02:13:02.255Z,46.51
2023-04-10T02:13:12.457Z,46.51
2023-04-10T02:13:22.694Z,46.51
2023-04-10T02:13:32.944Z,46.51
2023-04-10T02:13:43.187Z,46.62
2023-04-10T02:13:53.705Z,46.62
2023-04-10T02:14:03.687Z,46.62
2023-04-10T02:14:13.929Z,46.62
2023-04-10T02:14:24.175Z,46.72
2023-04-10T02:14:34.414Z,46.72
2023-04-10T02:14:44.659Z,46.72
2023-04-10T02:14:54.902Z,46.72
2023-04-10T02:15:05.150Z,46.72
2023-04-10T02:15:15.397Z,46.72
2023-04-10T02:15:25.635Z,46.62
2023-04-10T02:15:35.974Z,46.62
2023-04-10T02:15:46.209Z,46.62
2023-04-10T02:15:56.572Z,46.72
2023-04-10T02:16:06.912Z,46.72
2023-04-10T02:16:17.177Z,46.72
2023-04-10T02:16:27.489Z,46.62
2023-04-10T02:16:37.752Z,46.62